Time;durP1;ratioP1;P1;durP2;ratioP2;P2;SDS_P1;SDS_P2;PMS_P1;PMS_P2;Temp;Humidity;BMP_temperature;BMP_pressure;BME280_temperature;BME280_humidity;BME280_pressure;Samples;Min_cycle;Max_cycle;Signal;HPM_P1;HPM_P2
2021/11/21 11:18:00;;;;;;;3.23;2.53;;;;;;;6.89;84.35;98461.06;5231805;27;20571;-78
2021/11/21 11:20:29;;;;;;;3.23;1.83;;;;;;;7.60;82.59;98466.78;5233025;27;39676;-79
2021/11/21 11:22:58;;;;;;;3.13;2.33;;;;;;;8.23;79.66;98470.97;5181153;27;40698;-79
2021/11/21 11:25:27;;;;;;;2.80;1.70;;;;;;;8.72;77.38;98459.28;5170422;27;42392;-76
2021/11/21 11:27:59;;;;;;;3.63;2.23;;;;;;;9.15;75.11;98471.50;5175093;27;41086;-77
2021/11/21 11:30:31;;;;;;;3.43;2.23;;;;;;;9.43;73.34;98475.88;5173901;27;38657;-78
2021/11/21 11:33:08;;;;;;;3.03;1.90;;;;;;;9.78;72.93;98476.25;5192554;27;41549;-78
2021/11/21 11:35:39;;;;;;;2.27;1.87;;;;;;;10.00;71.43;98465.13;5173560;27;44435;-78
2021/11/21 11:38:16;;;;;;;2.90;1.70;;;;;;;10.26;69.70;98482.75;5174560;27;42215;-77
2021/11/21 11:40:52;;;;;;;2.30;1.67;;;;;;;10.39;69.49;98481.00;5173497;27;39969;-78
2021/11/21 11:43:38;;;;;;;1.70;1.50;;;;;;;10.34;67.58;98479.63;5195882;27;42452;-77
2021/11/21 11:46:22;;;;;;;3.20;1.90;;;;;;;10.33;68.01;98478.78;5191666;27;43104;-79
2021/11/21 11:48:54;;;;;;;2.47;1.87;;;;;;;10.34;67.14;98485.75;5170808;27;42091;-79
2021/11/21 11:51:49;;;;;;;2.50;1.70;;;;;;;10.35;67.34;98476.88;5173106;27;38653;-77
2021/11/21 11:54:26;;;;;;;2.40;1.73;;;;;;;10.38;67.84;98471.38;5174350;27;41918;-78
2021/11/21 11:56:58;;;;;;;1.93;1.70;;;;;;;10.42;67.22;98478.13;5197667;27;43037;-77
2021/11/21 11:59:36;;;;;;;3.40;1.70;;;;;;;10.38;66.96;98476.69;5161505;27;42969;-79
2021/11/21 12:02:09;;;;;;;5.10;2.57;;;;;;;10.35;66.19;98478.69;5178189;27;41950;-77
2021/11/21 12:05:04;;;;;;;2.43;1.97;;;;;;;10.33;66.34;98478.78;5179878;27;42963;-79
2021/11/21 12:07:37;;;;;;;2.77;1.97;;;;;;;10.23;66.65;98461.81;5178763;27;43084;-77
2021/11/21 12:10:11;;;;;;;3.03;2.30;;;;;;;10.20;66.91;98448.78;5211919;27;43150;-79
2021/11/21 12:13:07;;;;;;;3.37;2.00;;;;;;;10.32;66.49;98466.50;5199071;27;40709;-79
2021/11/21 12:15:45;;;;;;;2.67;1.97;;;;;;;10.23;66.52;98461.81;5167867;27;42699;-78
2021/11/21 12:18:13;;;;;;;3.03;2.23;;;;;;;10.16;66.32;98468.44;5152825;27;41859;-78
2021/11/21 12:20:57;;;;;;;2.77;2.10;;;;;;;10.09;66.04;98465.34;5170217;27;41845;-77
2021/11/21 12:24:07;;;;;;;4.00;2.17;;;;;;;10.09;66.26;98480.38;5157077;27;39692;-78
2021/11/21 12:26:38;;;;;;;2.80;2.03;;;;;;;10.03;65.78;98471.03;5169373;27;42205;-78
2021/11/21 12:29:11;;;;;;;2.73;1.93;;;;;;;9.98;66.14;98467.88;5149963;27;41714;-77
2021/11/21 12:31:42;;;;;;;2.67;1.90;;;;;;;9.91;66.41;98474.50;5154976;27;40994;-77
2021/11/21 12:34:34;;;;;;;2.87;1.87;;;;;;;9.87;66.43;98469.53;5187563;27;39837;-79
2021/11/21 12:37:26;;;;;;;5.30;2.33;;;;;;;9.81;66.81;98459.34;5180355;27;41918;-77
2021/11/21 12:39:57;;;;;;;1.87;1.63;;;;;;;9.83;66.39;98473.31;5163302;27;41901;-77
2021/11/21 12:42:27;;;;;;;3.87;2.80;;;;;;;9.69;66.19;98455.72;5166953;27;44221;-77
2021/11/21 12:45:07;;;;;;;2.83;2.23;;;;;;;9.71;66.15;98475.81;5138553;27;39291;-77
2021/11/21 12:47:35;;;;;;;2.67;2.30;;;;;;;9.60;66.47;98462.44;5163882;27;41740;-78
2021/11/21 12:50:04;;;;;;;3.90;2.80;;;;;;;9.61;66.86;98464.16;5177853;27;42991;-78
2021/11/21 12:52:34;;;;;;;3.27;2.50;;;;;;;9.58;66.51;98466.97;5157003;27;41146;-78
2021/11/21 12:55:02;;;;;;;2.67;1.77;;;;;;;9.56;66.36;98460.94;5145001;27;38720;-79
2021/11/21 12:57:48;;;;;;;3.93;2.17;;;;;;;9.60;66.46;98462.44;5157671;27;41280;-79
2021/11/21 13:00:17;;;;;;;3.60;2.47;;;;;;;9.64;66.34;98452.53;5150509;27;43552;-78
2021/11/21 13:02:56;;;;;;;3.33;2.43;;;;;;;9.69;65.96;98450.41;5149732;27;42439;-79
2021/11/21 13:05:24;;;;;;;3.43;2.33;;;;;;;9.66;65.66;98448.81;5159043;27;38989;-79
2021/11/21 13:07:53;;;;;;;2.70;2.30;;;;;;;9.64;65.79;98442.78;5167899;27;40645;-78
2021/11/21 13:10:21;;;;;;;3.33;2.50;;;;;;;9.58;65.68;98432.63;5150735;27;43151;-78
2021/11/21 13:12:50;;;;;;;4.00;2.40;;;;;;;9.70;65.92;98434.47;5155482;27;42721;-77
2021/11/21 13:15:21;;;;;;;3.70;2.73;;;;;;;9.76;66.43;98435.88;5136447;27;39113;-78
2021/11/21 13:18:06;;;;;;;4.40;2.17;;;;;;;9.71;65.93;98436.16;5170862;27;41157;-79
2021/11/21 13:20:35;;;;;;;4.50;2.60;;;;;;;9.71;65.79;98438.78;5165013;27;41738;-77
2021/11/21 13:23:05;;;;;;;3.13;2.03;;;;;;;9.56;66.16;98416.00;5190695;27;41735;-79
2021/11/21 13:25:48;;;;;;;2.53;2.30;;;;;;;9.68;65.96;98432.84;5175464;27;39747;-78
2021/11/21 13:28:32;;;;;;;4.13;2.30;;;;;;;9.58;66.38;98414.09;5186085;27;42223;-79
2021/11/21 13:31:01;;;;;;;4.23;2.70;;;;;;;9.63;66.28;98419.97;5146967;27;43049;-80
2021/11/21 13:33:32;;;;;;;3.23;2.03;;;;;;;9.63;66.33;98432.31;5176180;27;42449;-79
2021/11/21 13:36:02;;;;;;;3.67;2.27;;;;;;;9.62;66.59;98433.28;5175639;27;38860;-79
2021/11/21 13:38:33;;;;;;;2.93;2.20;;;;;;;9.58;66.26;98437.91;5175128;27;40633;-80
2021/11/21 13:41:00;;;;;;;2.63;1.93;;;;;;;9.51;66.11;98439.25;5170875;27;43576;-80
2021/11/21 13:43:40;;;;;;;3.67;2.90;;;;;;;9.30;66.85;98399.19;5192981;27;42490;-79
2021/11/21 13:46:08;;;;;;;3.33;2.67;;;;;;;9.47;67.13;98439.53;5158988;27;39046;-81
2021/11/21 13:48:38;;;;;;;2.90;2.40;;;;;;;9.43;66.89;98438.03;5163553;27;41835;-79
2021/11/21 13:51:08;;;;;;;2.60;2.07;;;;;;;9.11;66.95;98390.75;5163823;27;42076;-79
2021/11/21 13:53:48;;;;;;;4.27;2.93;;;;;;;9.32;67.26;98434.31;5190485;27;42636;-80
2021/11/21 13:56:17;;;;;;;3.73;2.30;;;;;;;9.29;67.34;98433.63;5196496;27;39755;-81
2021/11/21 13:58:46;;;;;;;2.83;1.93;;;;;;;9.29;67.05;98441.56;5183692;27;43688;-79
2021/11/21 14:01:18;;;;;;;4.17;2.73;;;;;;;9.24;67.43;98439.22;5155644;27;43058;-80
2021/11/21 14:03:48;;;;;;;2.83;1.87;;;;;;;9.26;67.51;98441.78;5169284;27;41756;-79
2021/11/21 14:06:18;;;;;;;3.23;1.97;;;;;;;9.11;67.55;98411.91;5149061;27;39006;-80
2021/11/21 14:09:02;;;;;;;2.27;2.07;;;;;;;9.17;67.72;98432.63;5146259;27;40676;-79
2021/11/21 14:11:37;;;;;;;3.37;2.50;;;;;;;9.22;67.56;98435.00;5172025;27;42719;-80
2021/11/21 14:14:09;;;;;;;3.07;1.90;;;;;;;9.12;67.63;98425.97;5172731;27;42081;-79
2021/11/21 14:16:41;;;;;;;4.00;2.17;;;;;;;9.17;67.47;98434.41;5183250;27;39687;-79
2021/11/21 14:19:09;;;;;;;3.60;2.43;;;;;;;9.18;67.93;98446.69;5172425;27;40975;-79
2021/11/21 14:21:37;;;;;;;3.80;2.43;;;;;;;9.17;67.32;98452.91;5190799;27;43598;-80
2021/11/21 14:24:10;;;;;;;3.90;2.27;;;;;;;9.14;67.75;98450.47;5159782;27;42468;-80
2021/11/21 14:26:39;;;;;;;3.90;2.10;;;;;;;9.13;67.82;98456.72;5162565;27;39981;-80
2021/11/21 14:29:07;;;;;;;3.03;2.17;;;;;;;9.10;67.85;98457.75;5157878;27;40895;-79
2021/11/21 14:31:36;;;;;;;4.43;2.37;;;;;;;9.01;67.74;98453.06;5191823;27;43347;-79
2021/11/21 14:34:09;;;;;;;3.50;2.30;;;;;;;9.02;67.89;98461.81;5155348;27;42038;-80
2021/11/21 14:36:38;;;;;;;6.43;2.70;;;;;;;8.97;68.26;98462.94;5173524;27;38977;-79
2021/11/21 14:39:09;;;;;;;3.13;1.80;;;;;;;8.93;68.02;98466.72;5157225;27;41864;-80
2021/11/21 14:41:40;;;;;;;2.50;1.57;;;;;;;8.89;68.34;98470.50;5156201;27;43480;-79
2021/11/21 14:44:09;;;;;;;2.57;2.00;;;;;;;8.84;68.29;98462.00;5176877;27;41904;-78
2021/11/21 14:46:38;;;;;;;2.37;2.10;;;;;;;8.74;68.26;98450.31;5174866;27;38819;-77
2021/11/21 14:49:08;;;;;;;4.50;2.30;;;;;;;8.78;68.65;98457.09;5193894;27;41889;-80
2021/11/21 14:51:39;;;;;;;3.67;1.93;;;;;;;8.86;68.51;98469.84;5140147;27;43077;-78
2021/11/21 14:54:09;;;;;;;4.40;2.60;;;;;;;8.85;68.59;98468.13;5175484;27;41099;-77
2021/11/21 14:56:40;;;;;;;3.47;2.10;;;;;;;8.84;68.49;98463.78;5158967;27;39932;-79
2021/11/21 14:59:08;;;;;;;2.57;2.17;;;;;;;8.85;68.72;98463.72;5189690;27;41848;-78
